createdAt,value
2022-10-15T00:01:29.499Z,31.20
2022-10-15T00:03:56.605Z,31.03
2022-10-15T00:06:23.606Z,29.90
2022-10-15T00:08:50.564Z,32.80
2022-10-15T00:11:21.198Z,33.20
2022-10-15T00:13:48.727Z,31.13
2022-10-15T00:16:21.106Z,32.72
2022-10-15T00:18:48.792Z,30.60
2022-10-15T00:21:20.338Z,31.88
2022-10-15T00:23:48.775Z,31.83
2022-10-15T00:26:22.619Z,32.03
2022-10-15T00:28:51.307Z,33.90
2022-10-15T00:31:21.023Z,32.67
2022-10-15T00:33:53.272Z,32.80
2022-10-15T00:36:24.190Z,33.00
2022-10-15T00:38:52.239Z,32.77
2022-10-15T00:41:32.723Z,32.53
2022-10-15T00:44:21.789Z,33.88
2022-10-15T00:46:55.948Z,32.00
2022-10-15T00:49:40.408Z,31.43
2022-10-15T00:52:21.709Z,33.20
2022-10-15T00:54:57.926Z,32.67
2022-10-15T00:57:25.718Z,32.43
2022-10-15T00:59:58.357Z,33.85
2022-10-15T01:02:25.853Z,32.03
2022-10-15T01:04:53.696Z,30.27
2022-10-15T01:07:20.691Z,33.55
2022-10-15T01:09:48.023Z,32.63
2022-10-15T01:12:55.061Z,33.10
2022-10-15T01:15:31.790Z,33.83
2022-10-15T01:18:46.120Z,33.73
2022-10-15T01:21:54.716Z,34.20
2022-10-15T01:24:42.918Z,33.67
2022-10-15T01:27:29.520Z,34.57
2022-10-15T01:30:25.874Z,33.78
2022-10-15T01:33:31.862Z,34.80
2022-10-15T01:36:23.368Z,34.23
2022-10-15T01:39:18.916Z,34.87
2022-10-15T01:41:54.374Z,33.10
2022-10-15T01:44:42.648Z,34.80
2022-10-15T01:47:44.462Z,36.37
2022-10-15T01:50:13.654Z,32.53
2022-10-15T01:52:42.173Z,34.30
2022-10-15T01:55:14.765Z,36.07
2022-10-15T01:57:45.012Z,34.73
2022-10-15T02:00:12.819Z,33.33
2022-10-15T02:02:41.999Z,33.57
2022-10-15T02:05:20.466Z,35.37
2022-10-15T02:08:13.344Z,35.60
2022-10-15T02:11:20.003Z,33.37
2022-10-15T02:14:10.621Z,32.90
2022-10-15T02:17:08.357Z,34.40
2022-10-15T02:19:52.110Z,33.40
2022-10-15T02:22:32.272Z,34.37
2022-10-15T02:25:06.942Z,33.47
2022-10-15T02:27:36.024Z,31.83
2022-10-15T02:30:08.224Z,34.73
2022-10-15T02:32:39.071Z,34.00
2022-10-15T02:35:10.549Z,32.93
2022-10-15T02:37:42.900Z,33.03
2022-10-15T02:40:10.854Z,33.00
2022-10-15T02:42:37.975Z,33.15
2022-10-15T02:45:05.599Z,34.07
2022-10-15T02:47:32.779Z,32.47
2022-10-15T02:49:59.783Z,32.87
2022-10-15T02:52:26.812Z,33.17
2022-10-15T02:54:53.808Z,33.90
2022-10-15T02:57:20.901Z,34.53
2022-10-15T02:59:48.092Z,35.40
2022-10-15T03:02:16.964Z,32.80
2022-10-15T03:04:46.510Z,34.43
2022-10-15T03:07:14.257Z,33.20
2022-10-15T03:09:41.176Z,32.53
2022-10-15T03:12:08.614Z,33.20
2022-10-15T03:14:35.543Z,34.23
2022-10-15T03:17:02.483Z,33.73
2022-10-15T03:19:29.482Z,32.07
2022-10-15T03:21:56.399Z,34.03
2022-10-15T03:24:23.302Z,32.20
2022-10-15T03:26:50.269Z,36.47
2022-10-15T03:29:17.151Z,32.17
2022-10-15T03:31:44.079Z,32.07
2022-10-15T03:34:11.046Z,34.63
2022-10-15T03:36:37.979Z,34.33
2022-10-15T03:39:05.925Z,33.07
2022-10-15T03:41:32.922Z,35.07
2022-10-15T03:44:05.726Z,33.73
2022-10-15T03:46:33.553Z,35.40
2022-10-15T03:49:01.550Z,35.07
2022-10-15T03:51:31.426Z,32.83
2022-10-15T03:53:58.810Z,32.00
2022-10-15T03:56:25.803Z,33.27
2022-10-15T03:58:52.735Z,33.87
2022-10-15T04:01:19.852Z,33.73
2022-10-15T04:03:47.042Z,34.23
2022-10-15T04:06:13.986Z,33.63
2022-10-15T04:08:40.976Z,32.13
2022-10-15T04:11:07.947Z,34.30
2022-10-15T04:13:34.911Z,31.90
2022-10-15T04:16:05.631Z,32.80
2022-10-15T04:18:33.101Z,32.27
2022-10-15T04:21:01.420Z,32.37
2022-10-15T04:23:28.539Z,34.53
2022-10-15T04:26:00.374Z,31.00
2022-10-15T04:28:28.609Z,30.60
2022-10-15T04:30:59.668Z,32.53
2022-10-15T04:33:27.694Z,30.23
2022-10-15T04:36:09.099Z,31.37
2022-10-15T04:38:36.129Z,31.23
2022-10-15T04:41:10.539Z,30.80
2022-10-15T04:43:38.599Z,29.33
2022-10-15T04:46:08.823Z,29.73
2022-10-15T04:48:40.493Z,30.43
2022-10-15T04:51:16.968Z,31.63
2022-10-15T04:53:44.368Z,29.90
2022-10-15T04:56:17.842Z,30.50
2022-10-15T04:58:47.701Z,28.70
2022-10-15T05:01:21.139Z,29.07
2022-10-15T05:03:49.195Z,29.13
2022-10-15T05:06:21.977Z,30.70
2022-10-15T05:08:49.938Z,28.87
2022-10-15T05:11:26.402Z,28.80
2022-10-15T05:13:55.906Z,29.57
2022-10-15T05:16:29.220Z,29.13
2022-10-15T05:19:00.363Z,27.83
2022-10-15T05:21:27.981Z,28.47
2022-10-15T05:23:55.073Z,27.60
2022-10-15T05:26:25.493Z,28.60
2022-10-15T05:28:53.230Z,27.67
2022-10-15T05:31:22.747Z,29.60
2022-10-15T05:33:52.051Z,28.48
2022-10-15T05:36:24.849Z,27.97
2022-10-15T05:38:58.073Z,28.13
2022-10-15T05:41:26.556Z,27.58
2022-10-15T05:43:56.127Z,28.52
2022-10-15T05:46:23.579Z,26.08
2022-10-15T05:48:56.225Z,28.20
2022-10-15T05:51:25.829Z,27.08
2022-10-15T05:53:57.369Z,27.63
2022-10-15T05:56:26.036Z,26.02
2022-10-15T05:58:52.979Z,28.25
2022-10-15T06:01:20.188Z,28.27
2022-10-15T06:03:47.282Z,26.83
2022-10-15T06:06:26.550Z,27.52
2022-10-15T06:08:55.288Z,27.67
2022-10-15T06:11:22.935Z,26.95
2022-10-15T06:13:49.962Z,26.20
2022-10-15T06:16:21.121Z,27.35
2022-10-15T06:18:53.573Z,27.55
2022-10-15T06:21:20.998Z,27.17
2022-10-15T06:23:47.961Z,26.38
2022-10-15T06:26:14.875Z,26.52
2022-10-15T06:28:41.982Z,28.17
2022-10-15T06:31:09.337Z,26.08
2022-10-15T06:33:36.899Z,25.95
2022-10-15T06:36:09.712Z,23.95
2022-10-15T06:38:37.552Z,25.60
2022-10-15T06:41:06.585Z,24.38
2022-10-15T06:43:35.222Z,26.63
2022-10-15T06:46:06.384Z,26.05
2022-10-15T06:48:33.835Z,25.63
2022-10-15T06:51:02.235Z,25.13
2022-10-15T06:53:30.273Z,25.23
2022-10-15T06:56:03.032Z,23.38
2022-10-15T06:58:30.386Z,23.23
2022-10-15T07:01:06.045Z,22.45
2022-10-15T07:03:33.470Z,22.75
2022-10-15T07:06:06.515Z,22.80
2022-10-15T07:08:34.070Z,22.52
2022-10-15T07:11:06.278Z,23.98
2022-10-15T07:13:33.467Z,24.25
2022-10-15T07:16:07.932Z,25.42
2022-10-15T07:18:35.784Z,24.35
2022-10-15T07:21:05.137Z,23.17
2022-10-15T07:23:32.576Z,23.10
2022-10-15T07:26:01.195Z,23.08
2022-10-15T07:28:28.470Z,22.90
2022-10-15T07:30:59.639Z,22.92
2022-10-15T07:33:26.613Z,21.23
2022-10-15T07:35:53.554Z,21.73
2022-10-15T07:38:20.548Z,20.45
2022-10-15T07:40:47.565Z,21.05
2022-10-15T07:43:16.025Z,20.73
2022-10-15T07:45:48.389Z,21.75
2022-10-15T07:48:15.429Z,21.50
2022-10-15T07:50:42.447Z,21.92
2022-10-15T07:53:09.719Z,21.70
2022-10-15T07:55:36.655Z,21.08
2022-10-15T07:58:05.813Z,21.48
2022-10-15T08:03:05.766Z,23.08
2022-10-15T08:05:33.745Z,22.92
2022-10-15T08:08:00.850Z,22.85
2022-10-15T08:10:28.382Z,20.17
2022-10-15T08:12:55.302Z,22.75
2022-10-15T08:15:22.185Z,21.85
2022-10-15T08:17:49.137Z,21.77
2022-10-15T08:20:16.106Z,21.15
2022-10-15T08:22:43.027Z,20.73
2022-10-15T08:25:10.062Z,20.50
2022-10-15T08:27:37.702Z,20.65
2022-10-15T08:30:05.294Z,22.00
2022-10-15T08:32:32.265Z,20.58
2022-10-15T08:34:59.171Z,19.67
2022-10-15T08:37:26.115Z,20.90
2022-10-15T08:39:53.131Z,20.08
2022-10-15T08:42:37.415Z,20.30
2022-10-15T08:45:19.397Z,20.10
2022-10-15T08:47:57.077Z,20.75
2022-10-15T08:51:05.415Z,21.00
2022-10-15T08:53:54.072Z,19.40
2022-10-15T08:56:45.752Z,20.23
2022-10-15T08:59:39.755Z,21.08
2022-10-15T09:02:26.810Z,21.80
2022-10-15T09:05:03.448Z,19.95
2022-10-15T09:08:11.488Z,20.27
2022-10-15T09:11:00.436Z,20.80
2022-10-15T09:13:42.354Z,21.58
2022-10-15T09:16:22.492Z,20.63
2022-10-15T09:18:53.300Z,20.55
2022-10-15T09:21:27.984Z,20.90
2022-10-15T09:24:18.443Z,21.58
2022-10-15T09:27:28.150Z,20.98
2022-10-15T09:30:31.137Z,20.38
2022-10-15T09:33:12.833Z,20.95
2022-10-15T09:35:53.138Z,20.38
2022-10-15T09:38:45.523Z,21.60
2022-10-15T09:41:18.259Z,19.45
2022-10-15T09:43:50.389Z,19.83
2022-10-15T09:46:17.648Z,21.20
2022-10-15T09:48:53.529Z,21.35
2022-10-15T09:52:03.220Z,20.92
2022-10-15T09:55:08.885Z,21.25
2022-10-15T09:57:37.744Z,21.50
2022-10-15T10:00:13.698Z,21.60
2022-10-15T10:02:41.091Z,21.15
2022-10-15T10:05:33.412Z,22.27
2022-10-15T10:08:24.767Z,19.95
2022-10-15T10:11:01.596Z,19.92
2022-10-15T10:13:46.234Z,18.88
2022-10-15T10:16:15.828Z,21.75
2022-10-15T10:18:50.474Z,20.20
2022-10-15T10:21:31.322Z,19.48
2022-10-15T10:24:35.852Z,20.38
2022-10-15T10:27:06.388Z,19.00
2022-10-15T10:29:40.599Z,17.77
2022-10-15T10:32:22.469Z,16.58
2022-10-15T10:34:52.802Z,18.00
2022-10-15T10:37:20.816Z,17.90
2022-10-15T10:39:54.827Z,18.40
2022-10-15T10:42:32.752Z,18.67
2022-10-15T10:45:22.784Z,17.75
2022-10-15T10:47:50.217Z,15.88
2022-10-15T10:50:34.606Z,17.88
2022-10-15T10:53:24.214Z,18.00
2022-10-15T10:55:55.259Z,16.73
2022-10-15T10:58:27.092Z,15.57
2022-10-15T11:00:55.758Z,15.93
2022-10-15T11:03:38.415Z,16.70
2022-10-15T11:06:23.563Z,17.08
2022-10-15T11:09:05.951Z,16.13
2022-10-15T11:12:04.404Z,16.10
2022-10-15T11:15:01.652Z,15.98
2022-10-15T11:17:40.854Z,15.63
2022-10-15T11:20:36.240Z,15.35
2022-10-15T11:24:09.356Z,15.88
2022-10-15T11:27:11.379Z,14.40
2022-10-15T11:29:41.606Z,15.85
2022-10-15T11:32:54.614Z,15.07
2022-10-15T11:35:59.292Z,14.77
2022-10-15T11:38:46.077Z,13.80
2022-10-15T11:42:09.118Z,15.45
2022-10-15T11:45:26.608Z,14.50
2022-10-15T11:47:53.426Z,14.93
2022-10-15T11:50:40.021Z,13.77
2022-10-15T11:53:37.001Z,15.52
2022-10-15T11:56:38.751Z,14.27
2022-10-15T11:59:40.797Z,13.55
2022-10-15T12:02:22.280Z,14.65
2022-10-15T12:04:59.058Z,13.95
2022-10-15T12:07:42.804Z,13.55
2022-10-15T12:10:12.716Z,14.57
2022-10-15T12:13:16.876Z,15.40
2022-10-15T12:16:16.335Z,13.90
2022-10-15T12:19:04.932Z,12.98
2022-10-15T12:21:56.473Z,12.68
2022-10-15T12:24:38.364Z,14.48
2022-10-15T12:27:20.016Z,14.10
2022-10-15T12:30:13.366Z,13.40
2022-10-15T12:32:44.104Z,13.48
2022-10-15T12:35:23.901Z,13.10
2022-10-15T12:37:51.480Z,14.05
2022-10-15T12:40:21.437Z,14.90
2022-10-15T12:43:01.595Z,13.48
2022-10-15T12:46:00.152Z,14.73
2022-10-15T12:48:36.449Z,15.05
2022-10-15T12:51:21.850Z,14.30
2022-10-15T12:53:51.276Z,13.80
2022-10-15T12:56:18.093Z,14.05
2022-10-15T12:58:53.673Z,13.27
2022-10-15T13:01:20.662Z,14.10
2022-10-15T13:03:50.660Z,13.40
2022-10-15T13:06:20.608Z,15.75
2022-10-15T13:09:12.305Z,13.55
2022-10-15T13:14:42.721Z,14.55
2022-10-15T13:17:21.730Z,12.68
2022-10-15T13:20:08.058Z,14.45
2022-10-15T13:22:36.844Z,13.88
2022-10-15T13:25:04.260Z,13.18
2022-10-15T13:27:35.652Z,14.35
2022-10-15T13:30:15.828Z,13.30
2022-10-15T13:32:52.480Z,13.80
2022-10-15T13:35:29.119Z,14.07
2022-10-15T13:37:58.138Z,14.05
2022-10-15T13:40:31.449Z,14.68
2022-10-15T13:43:15.719Z,14.35
2022-10-15T13:45:57.545Z,13.57
2022-10-15T13:48:28.544Z,14.55
2022-10-15T13:50:59.906Z,13.82
2022-10-15T13:53:37.593Z,14.02
2022-10-15T13:56:25.461Z,14.10
2022-10-15T13:58:53.760Z,13.30
2022-10-15T14:01:24.260Z,14.27
2022-10-15T14:03:55.307Z,14.68
2022-10-15T14:06:31.329Z,14.75
2022-10-15T14:09:19.161Z,14.23
2022-10-15T14:11:46.478Z,14.55
2022-10-15T14:14:46.753Z,13.40
2022-10-15T14:17:26.336Z,14.75
2022-10-15T14:20:26.917Z,13.77
2022-10-15T14:22:49.896Z,14.88
2022-10-15T14:25:24.965Z,14.30
2022-10-15T14:27:52.733Z,14.13
2022-10-15T14:30:33.108Z,15.10
2022-10-15T14:33:00.206Z,14.38
2022-10-15T14:35:35.823Z,14.13
2022-10-15T14:38:09.720Z,14.02
2022-10-15T14:40:37.114Z,14.02
2022-10-15T14:43:19.692Z,14.20
2022-10-15T14:45:52.446Z,14.00
2022-10-15T14:48:43.637Z,13.63
2022-10-15T14:51:27.025Z,15.27
2022-10-15T14:53:54.450Z,14.85
2022-10-15T14:56:32.058Z,16.20
2022-10-15T14:59:01.163Z,15.48
2022-10-15T15:01:30.427Z,15.75
2022-10-15T15:03:57.394Z,15.73
2022-10-15T15:06:24.402Z,15.55
2022-10-15T15:08:51.480Z,14.05
2022-10-15T15:11:22.874Z,14.57
2022-10-15T15:13:51.539Z,15.48
2022-10-15T15:16:19.056Z,15.02
2022-10-15T15:18:48.339Z,14.52
2022-10-15T15:21:21.648Z,14.32
2022-10-15T15:23:49.138Z,14.48
2022-10-15T15:26:16.086Z,14.57
2022-10-15T15:28:43.110Z,14.82
2022-10-15T15:31:18.882Z,14.02
2022-10-15T15:33:46.072Z,14.70
2022-10-15T15:36:22.526Z,15.55
2022-10-15T15:38:50.825Z,15.00
2022-10-15T15:41:20.848Z,14.93
2022-10-15T15:43:48.451Z,15.52
2022-10-15T15:46:16.179Z,14.30
2022-10-15T15:48:43.450Z,14.20
2022-10-15T15:51:28.972Z,14.55
2022-10-15T15:53:57.067Z,14.18
2022-10-15T15:56:24.620Z,15.20
2022-10-15T15:58:51.978Z,15.27
2022-10-15T16:01:20.305Z,13.50
2022-10-15T16:03:47.505Z,14.38
2022-10-15T16:06:14.536Z,14.80
2022-10-15T16:08:41.590Z,14.00
2022-10-15T16:11:08.575Z,15.15
2022-10-15T16:13:35.576Z,14.95
2022-10-15T16:16:02.870Z,15.10
2022-10-15T16:18:29.896Z,14.80
2022-10-15T16:20:56.873Z,15.23
2022-10-15T16:23:23.852Z,15.80
2022-10-15T16:25:50.780Z,16.27
2022-10-15T16:28:17.763Z,17.63
2022-10-15T16:30:44.699Z,18.67
2022-10-15T16:33:11.733Z,18.58
2022-10-15T16:35:38.710Z,16.55
2022-10-15T16:38:05.739Z,18.05
2022-10-15T16:40:33.627Z,16.98
2022-10-15T16:43:00.930Z,17.05
2022-10-15T16:45:27.874Z,16.08
2022-10-15T16:47:54.827Z,17.48
2022-10-15T16:50:21.870Z,16.63
2022-10-15T16:52:48.903Z,16.88
2022-10-15T16:55:16.866Z,16.95
2022-10-15T16:57:44.469Z,16.85
2022-10-15T17:00:12.152Z,17.10
2022-10-15T17:02:39.258Z,17.17
2022-10-15T17:05:06.889Z,17.42
2022-10-15T17:07:33.913Z,15.27
2022-10-15T17:10:01.074Z,16.52
2022-10-15T17:12:28.398Z,17.90
2022-10-15T17:14:55.537Z,17.45
2022-10-15T17:17:22.641Z,18.77
2022-10-15T17:19:49.615Z,18.17
2022-10-15T17:22:16.570Z,18.75
2022-10-15T17:24:43.903Z,17.58
2022-10-15T17:27:10.841Z,17.70
2022-10-15T17:29:38.262Z,18.17
2022-10-15T17:32:05.330Z,17.60
2022-10-15T17:34:32.417Z,18.40
2022-10-15T17:36:59.423Z,18.95
2022-10-15T17:39:26.447Z,18.02
2022-10-15T17:41:53.489Z,19.17
2022-10-15T17:44:20.666Z,18.27
2022-10-15T17:49:19.536Z,22.42
2022-10-15T17:51:47.288Z,18.65
2022-10-15T17:54:14.461Z,23.50
2022-10-15T17:56:41.644Z,20.83
2022-10-15T17:59:11.711Z,20.05
2022-10-15T18:01:59.249Z,19.85
2022-10-15T18:04:28.817Z,19.88
2022-10-15T18:06:55.897Z,20.20
2022-10-15T18:09:22.852Z,19.88
2022-10-15T18:11:49.845Z,20.20
2022-10-15T18:14:17.936Z,19.25
2022-10-15T18:16:45.888Z,20.17
2022-10-15T18:19:13.013Z,19.33
2022-10-15T18:21:39.961Z,19.23
2022-10-15T18:24:06.990Z,19.67
2022-10-15T18:26:33.937Z,20.30
2022-10-15T18:29:00.863Z,20.13
2022-10-15T18:31:28.232Z,20.00
2022-10-15T18:33:56.170Z,20.10
2022-10-15T18:36:25.930Z,20.42
2022-10-15T18:38:53.440Z,20.30
2022-10-15T18:41:28.179Z,20.77
2022-10-15T18:44:14.764Z,20.52
2022-10-15T18:46:43.977Z,20.75
2022-10-15T18:49:13.130Z,26.02
2022-10-15T18:51:40.197Z,25.25
2022-10-15T18:54:08.716Z,27.05
2022-10-15T18:56:35.800Z,24.00
2022-10-15T18:59:02.720Z,22.42
2022-10-15T19:01:41.951Z,21.55
2022-10-15T19:04:15.357Z,19.85
2022-10-15T19:06:46.526Z,19.58
2022-10-15T19:09:23.095Z,21.00
2022-10-15T19:11:54.600Z,20.65
2022-10-15T19:14:23.610Z,19.65
2022-10-15T19:16:51.397Z,20.42
2022-10-15T19:19:21.132Z,20.60
2022-10-15T19:21:50.073Z,20.98
2022-10-15T19:24:19.179Z,20.25
2022-10-15T19:26:47.188Z,20.17
2022-10-15T19:29:14.294Z,20.85
2022-10-15T19:31:44.315Z,20.10
2022-10-15T19:34:12.306Z,20.58
2022-10-15T19:36:43.521Z,21.30
2022-10-15T19:39:17.692Z,19.58
2022-10-15T19:41:45.857Z,20.02
2022-10-15T19:44:16.864Z,18.75
2022-10-15T19:46:43.913Z,35.42
2022-10-15T19:49:13.209Z,23.25
2022-10-15T19:51:40.619Z,21.65
2022-10-15T19:54:07.632Z,20.40
2022-10-15T19:56:34.815Z,19.88
2022-10-15T19:59:04.308Z,20.38
2022-10-15T20:01:32.118Z,19.35
2022-10-15T20:04:04.874Z,20.77
2022-10-15T20:06:36.017Z,20.63
2022-10-15T20:09:03.384Z,19.45
2022-10-15T20:11:30.444Z,19.63
2022-10-15T20:13:59.737Z,21.02
2022-10-15T20:16:27.611Z,25.98
2022-10-15T20:18:58.700Z,21.63
2022-10-15T20:21:25.607Z,22.42
2022-10-15T20:23:52.583Z,20.90
2022-10-15T20:26:19.492Z,22.38
2022-10-15T20:28:46.859Z,22.25
2022-10-15T20:31:24.999Z,20.48
2022-10-15T20:33:51.921Z,20.40
2022-10-15T20:36:22.781Z,20.95
2022-10-15T20:38:52.038Z,21.55
2022-10-15T20:41:19.786Z,24.00
2022-10-15T20:43:51.266Z,46.42
2022-10-15T20:46:37.109Z,26.48
2022-10-15T20:49:23.036Z,26.80
2022-10-15T20:51:50.852Z,46.22
2022-10-15T20:54:19.125Z,29.90
2022-10-15T20:56:46.368Z,23.65
2022-10-15T20:59:13.320Z,28.13
2022-10-15T21:01:40.433Z,41.45
2022-10-15T21:04:07.436Z,25.67
2022-10-15T21:06:34.374Z,39.45
2022-10-15T21:09:01.471Z,29.73
2022-10-15T21:11:28.540Z,23.95
2022-10-15T21:13:55.533Z,24.27
2022-10-15T21:16:25.893Z,22.55
2022-10-15T21:18:55.305Z,36.08
2022-10-15T21:21:22.214Z,23.38
2022-10-15T21:23:49.226Z,18.83
2022-10-15T21:26:18.013Z,18.85
2022-10-15T21:28:47.762Z,23.70
2022-10-15T21:31:17.807Z,19.65
2022-10-15T21:33:46.068Z,25.38
2022-10-15T21:36:22.384Z,17.63
2022-10-15T21:39:01.005Z,17.27
2022-10-15T21:41:31.408Z,18.08
2022-10-15T21:44:00.174Z,17.90
2022-10-15T21:46:28.111Z,15.80
2022-10-15T21:48:55.211Z,17.13
2022-10-15T21:51:26.150Z,17.48
2022-10-15T21:53:55.341Z,17.40
2022-10-15T21:56:22.960Z,16.00
2022-10-15T21:58:50.099Z,15.38
2022-10-15T22:01:21.871Z,16.85
2022-10-15T22:03:51.261Z,16.50
2022-10-15T22:06:19.907Z,16.02
2022-10-15T22:08:47.850Z,16.80
2022-10-15T22:11:22.305Z,15.93
2022-10-15T22:13:56.435Z,16.05
2022-10-15T22:16:25.671Z,16.23
2022-10-15T22:18:53.279Z,16.13
2022-10-15T22:21:36.522Z,15.55
2022-10-15T22:24:12.107Z,15.48
2022-10-15T22:26:43.039Z,14.90
2022-10-15T22:29:31.707Z,16.00
2022-10-15T22:32:01.593Z,15.48
2022-10-15T22:34:28.603Z,15.88
2022-10-15T22:36:55.650Z,14.95
2022-10-15T22:39:22.588Z,15.50
2022-10-15T22:41:49.620Z,14.75
2022-10-15T22:44:20.101Z,15.15
2022-10-15T22:46:49.400Z,14.73
2022-10-15T22:49:21.535Z,15.45
2022-10-15T22:51:49.841Z,14.90
2022-10-15T22:54:19.252Z,15.80
2022-10-15T22:56:47.395Z,14.70
2022-10-15T22:59:15.473Z,13.85
2022-10-15T23:01:43.026Z,15.25
2022-10-15T23:04:13.934Z,15.80
2022-10-15T23:06:41.377Z,13.80
2022-10-15T23:09:10.894Z,15.25
2022-10-15T23:11:40.215Z,15.07
2022-10-15T23:14:14.530Z,13.63
2022-10-15T23:16:45.291Z,13.85
2022-10-15T23:19:20.707Z,13.48
2022-10-15T23:21:55.457Z,14.50
2022-10-15T23:24:26.110Z,14.52
2022-10-15T23:26:53.553Z,14.27
2022-10-15T23:29:24.031Z,13.90
2022-10-15T23:31:52.291Z,13.13
2022-10-15T23:34:23.055Z,12.52
2022-10-15T23:36:50.507Z,13.95
2022-10-15T23:39:21.829Z,13.45
2022-10-15T23:41:49.156Z,13.57
2022-10-15T23:44:16.132Z,13.43
2022-10-15T23:46:43.592Z,12.88
2022-10-15T23:49:10.926Z,12.88
2022-10-15T23:51:38.491Z,12.80
2022-10-15T23:54:16.321Z,12.27
2022-10-15T23:56:44.195Z,11.95
2022-10-15T23:59:11.934Z,14.77
